Aérodrome :
LOGIN :

S'inscrire | Disclaimer

   EN    FR    IT 

 










Légende :    VFR   VFR Marginal   IFR   IFR Intensif   IFR Très Intensif
Visi : 
Plafond : 
>= 8 km
>= 3000ft
5 à 8 km
1000 à 3000 ft
1500m à 5 km
500 à 1000 ft
800 à 1500m
200 à 500 ft
< 800m
< 200 ft
Symboles :   Orages  Brouillard  Fortes neiges  Fortes précipitations  Vent > 20 kt
SIGMETs :   Divers  Orages  Givrage  Turbulence  Onde Orograph.  Cendres Volcan.






- Altitude de l'aérodrome : 614 ft
- Code IATA : CRL


EBCI - Charleroi

DERNIER METAR :
  • 110320Z 17005KT CAVOK 11/09 Q1008 NOSIG

METARs EXPIRÉS :
  • 110250Z 19003KT CAVOK 10/09 Q1008 NOSIG
  • 110220Z 18003KT CAVOK 11/09 Q1008 NOSIG
  • 110150Z 18004KT 150V210 CAVOK 12/09 Q1008 NOSIG
  • 110120Z 18005KT CAVOK 12/08 Q1008 NOSIG
  • 110050Z 18004KT CAVOK 12/08 Q1008 NOSIG

TAF TAF EBCI
Valide du 11 à 00h jusqu'au 12 à 06h UTC


102310Z 1100/1206 18005KT CAVOK
TEMPO 1111/1121 26015G25KT 3500 SHRA
PROB30
TEMPO 1112/1119 VRB20G35KT 2000 TSRA
PROB30
TEMPO 1200/1206 4000 BR



MET'MAP, la Météo Aéronautique d'un coup d'oeil ! - Copyright ORBIFLY Décembre 2007 - Disclaimer

ORBIFLY MET'MAP TEAM :

Programmation & Développement : Alexandra Zaïnal
Sur une idée originale de : Baudouin d'Aumeries
Assistance à la programmation : Marc-Olivier Méhu
Soutien technique & logistique : Manuel Goepfert

Contact : metmap@orbifly.com




SOURCES & CREDITS :

   NOAA